Time;durP1;ratioP1;P1;durP2;ratioP2;P2;SDS_P1;SDS_P2;PMS_P1;PMS_P2;Temp;Humidity;BMP_temperature;BMP_pressure;BME280_temperature;BME280_humidity;BME280_pressure;Samples;Min_cycle;Max_cycle;Signal;HPM_P1;HPM_P2
2023/10/10 00:00:23;;;;;;;0.50;0.30;;;16.50;99.90;;;;;;5054364;28;20491;-81
2023/10/10 00:02:45;;;;;;;0.50;0.40;;;16.60;99.90;;;;;;5054248;28;20421;-81
2023/10/10 00:05:12;;;;;;;0.50;0.40;;;16.60;99.90;;;;;;5054411;28;20894;-82
2023/10/10 00:07:42;;;;;;;0.50;0.50;;;16.60;99.90;;;;;;5054150;28;20907;-82
2023/10/10 00:10:13;;;;;;;0.50;0.40;;;16.60;99.90;;;;;;5054149;28;20522;-80
2023/10/10 00:12:40;;;;;;;0.50;0.30;;;16.60;99.90;;;;;;5055937;28;20441;-81
2023/10/10 00:15:20;;;;;;;0.50;0.30;;;16.60;99.90;;;;;;5058460;28;20477;-82
2023/10/10 00:17:47;;;;;;;0.50;0.40;;;16.60;99.90;;;;;;5052823;28;20440;-81
2023/10/10 00:20:17;;;;;;;0.50;0.30;;;16.70;99.90;;;;;;5058308;28;20434;-79
2023/10/10 00:22:47;;;;;;;0.50;0.40;;;16.70;99.90;;;;;;5058284;28;20422;-81
2023/10/10 00:25:16;;;;;;;0.50;0.40;;;16.70;99.90;;;;;;5058225;28;20453;-78
2023/10/10 00:27:44;;;;;;;0.50;0.37;;;16.70;99.90;;;;;;5058129;28;20856;-81
2023/10/10 00:30:12;;;;;;;0.50;0.50;;;16.70;99.90;;;;;;5057637;28;20445;-80
2023/10/10 00:32:46;;;;;;;1.73;1.63;;;16.70;99.90;;;;;;5058008;28;20925;-81
2023/10/10 00:35:12;;;;;;;0.50;0.30;;;16.80;99.90;;;;;;5057764;28;21003;-80
2023/10/10 00:37:39;;;;;;;0.50;0.40;;;16.70;99.90;;;;;;5057582;28;20434;-81
2023/10/10 00:40:09;;;;;;;0.50;0.30;;;16.70;99.90;;;;;;5057642;28;20438;-81
2023/10/10 00:42:41;;;;;;;0.50;0.40;;;16.60;99.90;;;;;;5041852;28;20434;-80
2023/10/10 00:45:12;;;;;;;0.60;0.60;;;16.60;99.90;;;;;;5057650;28;20450;-81
2023/10/10 00:47:43;;;;;;;0.50;0.30;;;16.60;99.90;;;;;;5049054;28;20452;-81
2023/10/10 00:50:15;;;;;;;4.97;4.77;;;16.60;99.90;;;;;;5057489;28;20925;-81
2023/10/10 00:52:44;;;;;;;0.50;0.40;;;16.60;99.90;;;;;;5050066;28;20436;-79
2023/10/10 00:55:12;;;;;;;0.83;0.80;;;16.50;99.90;;;;;;5086707;22;20505;-82
2023/10/10 00:57:40;;;;;;;0.50;0.30;;;16.50;99.90;;;;;;5033652;28;20825;-80
2023/10/10 01:00:14;;;;;;;0.50;0.40;;;16.50;99.90;;;;;;5030389;28;20446;-80
2023/10/10 01:02:43;;;;;;;0.50;0.30;;;16.50;99.90;;;;;;5034264;28;20448;-80
2023/10/10 01:05:13;;;;;;;0.50;0.40;;;16.40;99.90;;;;;;5034080;28;20450;-80
2023/10/10 01:07:40;;;;;;;0.50;0.30;;;16.40;99.90;;;;;;5018352;28;20446;-81
2023/10/10 01:10:12;;;;;;;0.50;0.40;;;16.30;99.90;;;;;;5025912;28;20546;-80
2023/10/10 01:12:41;;;;;;;0.50;0.40;;;16.20;99.90;;;;;;5034253;28;20474;-80
2023/10/10 01:15:14;;;;;;;0.50;0.40;;;16.20;99.90;;;;;;5033616;28;20486;-80
2023/10/10 01:17:43;;;;;;;0.50;0.40;;;16.10;99.90;;;;;;5033799;28;20438;-80
2023/10/10 01:20:19;;;;;;;0.50;0.40;;;16.20;99.90;;;;;;5033825;28;20818;-78
2023/10/10 01:22:47;;;;;;;0.50;0.50;;;16.10;99.90;;;;;;5019048;28;20435;-80
2023/10/10 01:28:03;;;;;;;0.50;0.40;;;16.10;99.90;;;;;;5033639;28;20453;-80
2023/10/10 01:30:56;;;;;;;0.50;0.40;;;16.10;99.90;;;;;;5033071;28;20442;-81
2023/10/10 01:33:28;;;;;;;0.87;0.87;;;16.00;99.90;;;;;;5033317;28;20453;-80
2023/10/10 01:35:55;;;;;;;0.50;0.40;;;16.00;99.90;;;;;;5027820;28;20514;-81
2023/10/10 01:38:44;;;;;;;0.50;0.30;;;16.00;99.90;;;;;;5022786;28;20439;-80
2023/10/10 01:41:21;;;;;;;0.50;0.40;;;16.00;99.90;;;;;;5033606;28;20446;-78
2023/10/10 01:43:53;;;;;;;0.50;0.40;;;16.00;99.90;;;;;;5019250;28;20512;-80
2023/10/10 01:46:27;;;;;;;2.73;2.47;;;16.00;99.90;;;;;;5024468;28;20493;-81
2023/10/10 01:48:54;;;;;;;0.50;0.40;;;16.00;99.90;;;;;;5033767;28;20449;-82
2023/10/10 01:51:24;;;;;;;0.50;0.40;;;16.00;99.90;;;;;;5033476;28;20438;-80
2023/10/10 01:53:55;;;;;;;0.50;0.40;;;15.90;99.90;;;;;;5028091;28;20442;-80
2023/10/10 01:56:22;;;;;;;0.80;0.80;;;15.90;99.90;;;;;;5025527;28;20487;-81
2023/10/10 01:58:53;;;;;;;1.37;1.27;;;15.90;99.90;;;;;;5033798;28;20446;-80
2023/10/10 02:01:20;;;;;;;0.50;0.33;;;15.90;99.90;;;;;;5034123;28;20541;-79
2023/10/10 02:03:48;;;;;;;4.03;3.70;;;15.90;99.90;;;;;;5029864;28;20447;-82
2023/10/10 02:06:24;;;;;;;0.50;0.40;;;15.90;99.90;;;;;;5029869;28;20486;-81
2023/10/10 02:08:52;;;;;;;0.50;0.40;;;15.90;99.90;;;;;;5033446;28;20447;-79
2023/10/10 02:11:20;;;;;;;0.50;0.40;;;15.80;99.90;;;;;;5017124;28;20534;-80
2023/10/10 02:13:47;;;;;;;0.50;0.40;;;15.80;99.90;;;;;;5033304;28;20534;-79
2023/10/10 02:16:17;;;;;;;1.37;1.27;;;15.80;99.90;;;;;;5025647;28;20519;-80
2023/10/10 02:18:51;;;;;;;0.50;0.40;;;15.80;99.90;;;;;;5016803;28;20518;-80
2023/10/10 02:21:31;;;;;;;0.57;0.53;;;15.70;99.90;;;;;;5025391;28;20439;-81
2023/10/10 02:24:12;;;;;;;0.60;0.40;;;15.70;99.90;;;;;;5015384;28;20454;-80
2023/10/10 02:26:39;;;;;;;0.97;0.97;;;15.70;99.90;;;;;;5029397;28;20562;-79
2023/10/10 02:29:34;;;;;;;0.97;0.97;;;15.60;99.90;;;;;;5027898;28;20438;-80
2023/10/10 02:32:09;;;;;;;1.00;0.80;;;15.60;99.90;;;;;;5021139;28;20449;-80
2023/10/10 02:34:36;;;;;;;0.60;0.40;;;15.50;99.90;;;;;;5023752;28;20518;-81
2023/10/10 02:37:30;;;;;;;0.50;0.43;;;15.50;99.90;;;;;;5024401;28;20501;-80
2023/10/10 02:40:06;;;;;;;0.50;0.40;;;15.30;99.90;;;;;;5032436;28;20442;-81
2023/10/10 02:42:33;;;;;;;0.50;0.40;;;15.30;99.90;;;;;;5032375;28;20533;-80
2023/10/10 02:45:00;;;;;;;0.57;0.57;;;15.20;99.90;;;;;;5032152;28;20498;-80
2023/10/10 02:47:32;;;;;;;0.50;0.40;;;15.20;99.90;;;;;;5023673;28;20455;-80
2023/10/10 02:50:09;;;;;;;3.07;2.97;;;15.10;99.90;;;;;;5032384;28;20447;-81
2023/10/10 02:52:38;;;;;;;2.00;1.17;;;15.10;99.90;;;;;;5032158;28;20446;-80
2023/10/10 02:55:14;;;;;;;0.50;0.40;;;15.10;99.90;;;;;;5031911;28;20482;-80
2023/10/10 02:57:41;;;;;;;0.50;0.40;;;15.00;99.90;;;;;;5021312;28;20509;-80
2023/10/10 03:00:27;;;;;;;0.50;0.40;;;15.00;99.90;;;;;;5026692;28;20486;-80
2023/10/10 03:02:54;;;;;;;0.50;0.40;;;15.00;99.90;;;;;;5028288;28;20450;-78
2023/10/10 03:05:38;;;;;;;0.50;0.40;;;14.90;99.90;;;;;;5020467;28;20459;-78
2023/10/10 03:08:12;;;;;;;0.50;0.40;;;14.90;99.90;;;;;;5020715;28;20450;-81
2023/10/10 03:10:44;;;;;;;1.23;1.23;;;14.80;99.90;;;;;;5023858;28;20501;-79
2023/10/10 03:13:27;;;;;;;0.83;0.83;;;14.80;99.90;;;;;;5023932;28;20453;-80
2023/10/10 03:15:56;;;;;;;0.50;0.40;;;14.70;99.90;;;;;;5031573;28;20478;-80
2023/10/10 03:18:29;;;;;;;1.03;0.93;;;14.70;99.90;;;;;;5033017;28;20930;-80
2023/10/10 03:21:24;;;;;;;0.50;0.40;;;14.70;99.90;;;;;;5017505;28;20438;-79
2023/10/10 03:23:55;;;;;;;0.50;0.40;;;14.70;99.90;;;;;;5031975;28;20451;-80
2023/10/10 03:29:20;;;;;;;0.50;0.37;;;14.60;99.90;;;;;;5007427;28;20447;-80
2023/10/10 03:31:48;;;;;;;0.50;0.40;;;14.50;99.90;;;;;;5023298;28;20477;-80
2023/10/10 03:34:19;;;;;;;0.50;0.40;;;14.50;99.90;;;;;;5031588;28;20470;-80
2023/10/10 03:36:49;;;;;;;0.50;0.40;;;14.50;99.90;;;;;;5031126;28;20478;-80
2023/10/10 05:23:34;;;;;;;1.53;1.47;;;14.30;99.90;;;;;;5035038;28;20441;-81
2023/10/10 05:26:02;;;;;;;0.50;0.40;;;14.40;99.90;;;;;;5033815;28;20803;-81
2023/10/10 05:28:32;;;;;;;0.80;0.67;;;14.30;99.90;;;;;;5033456;28;20469;-81
2023/10/10 05:31:02;;;;;;;2.97;1.77;;;14.30;99.90;;;;;;5033669;28;20442;-81
2023/10/10 05:33:30;;;;;;;4.20;2.23;;;14.40;99.90;;;;;;5033608;28;20805;-81
2023/10/10 05:36:06;;;;;;;0.50;0.40;;;14.30;99.90;;;;;;5030635;28;20483;-82
2023/10/10 05:38:35;;;;;;;7.50;4.47;;;14.30;99.90;;;;;;5029859;28;20457;-82
2023/10/10 05:41:02;;;;;;;1.43;1.33;;;14.30;99.90;;;;;;5034501;28;20481;-81
2023/10/10 05:43:33;;;;;;;9.20;1.63;;;14.30;99.90;;;;;;5026796;28;20785;-81
2023/10/10 05:46:01;;;;;;;0.97;0.97;;;14.30;99.90;;;;;;5016908;28;20450;-81
2023/10/10 05:48:27;;;;;;;1.63;1.53;;;14.30;99.90;;;;;;5027806;28;20445;-81
2023/10/10 05:50:54;;;;;;;1.27;1.27;;;14.20;99.90;;;;;;5031318;28;20442;-81
2023/10/10 05:53:24;;;;;;;2.33;1.80;;;14.20;99.90;;;;;;5015108;28;20435;-80
2023/10/10 05:55:53;;;;;;;0.50;0.40;;;14.20;99.90;;;;;;5024406;28;21002;-79
2023/10/10 05:58:20;;;;;;;0.50;0.40;;;14.20;99.90;;;;;;5019368;28;20475;-79
2023/10/10 06:00:48;;;;;;;1.20;1.10;;;14.20;99.90;;;;;;5021937;28;20434;-79
2023/10/10 06:03:16;;;;;;;3.80;1.10;;;14.20;99.90;;;;;;5014394;28;20447;-76
2023/10/10 06:05:45;;;;;;;2.13;1.23;;;14.30;99.90;;;;;;5013796;28;20510;-79
2023/10/10 06:08:12;;;;;;;0.50;0.40;;;14.20;99.90;;;;;;5014544;28;20450;-79
2023/10/10 06:10:40;;;;;;;0.50;0.40;;;14.20;99.90;;;;;;5013130;28;20447;-80
2023/10/10 06:13:07;;;;;;;1.53;1.10;;;14.20;99.90;;;;;;5010323;28;20919;-79
2023/10/10 06:15:35;;;;;;;2.20;2.00;;;14.30;99.90;;;;;;5017705;28;20486;-77
2023/10/10 06:18:11;;;;;;;0.70;0.70;;;14.30;99.90;;;;;;5024815;28;20530;-79
2023/10/10 06:20:41;;;;;;;0.53;0.50;;;14.40;99.90;;;;;;5017049;28;20447;-79
2023/10/10 06:23:09;;;;;;;0.50;0.40;;;14.40;99.90;;;;;;5013590;28;20439;-79
2023/10/10 06:25:37;;;;;;;1.37;1.27;;;14.40;99.90;;;;;;5029302;28;20546;-80
2023/10/10 06:28:14;;;;;;;0.50;0.40;;;14.50;99.90;;;;;;5022153;28;20448;-80
2023/10/10 06:30:44;;;;;;;1.90;1.70;;;14.50;99.90;;;;;;5029678;28;20457;-80
2023/10/10 06:33:15;;;;;;;0.50;0.40;;;14.60;99.90;;;;;;5009690;28;20446;-79
2023/10/10 06:35:52;;;;;;;1.47;0.97;;;14.70;99.90;;;;;;5024847;28;20478;-81
2023/10/10 06:38:24;;;;;;;0.50;0.30;;;14.70;99.90;;;;;;5024870;28;20456;-79
2023/10/10 06:40:54;;;;;;;0.50;0.40;;;14.80;99.90;;;;;;5023168;28;20838;-79
2023/10/10 06:43:22;;;;;;;0.50;0.40;;;14.90;99.90;;;;;;5018373;28;20445;-80
2023/10/10 06:45:54;;;;;;;1.13;1.10;;;14.90;99.90;;;;;;5024320;28;20462;-79
2023/10/10 06:48:22;;;;;;;0.60;0.60;;;15.00;99.90;;;;;;5024948;28;20434;-79
2023/10/10 06:50:50;;;;;;;4.30;1.57;;;15.00;99.90;;;;;;5015809;28;20439;-79
2023/10/10 06:53:34;;;;;;;0.50;0.33;;;15.10;99.90;;;;;;5021925;28;20439;-79
2023/10/10 06:56:14;;;;;;;0.50;0.40;;;15.20;99.90;;;;;;5074658;22;20488;-81
2023/10/10 06:58:44;;;;;;;1.97;1.87;;;15.30;99.90;;;;;;5107358;28;20447;-81
2023/10/10 07:01:12;;;;;;;0.50;0.37;;;15.30;99.90;;;;;;5115569;28;20431;-80
2023/10/10 07:03:41;;;;;;;0.50;0.40;;;15.40;99.90;;;;;;5115485;28;20435;-81
2023/10/10 07:06:09;;;;;;;1.13;1.07;;;15.50;99.90;;;;;;5105505;28;20459;-80
2023/10/10 07:08:36;;;;;;;2.37;2.23;;;15.60;99.90;;;;;;5094079;28;20962;-79
2023/10/10 07:11:03;;;;;;;0.50;0.37;;;15.70;99.90;;;;;;5093695;28;20436;-80
2023/10/10 07:13:30;;;;;;;0.50;0.30;;;15.80;99.90;;;;;;5087807;28;20523;-80
2023/10/10 07:16:01;;;;;;;9.40;4.03;;;15.90;99.90;;;;;;5092348;28;20483;-81
2023/10/10 07:18:28;;;;;;;0.50;0.40;;;16.00;99.90;;;;;;5094556;28;20450;-80
2023/10/10 07:21:08;;;;;;;1.40;0.83;;;16.00;99.90;;;;;;5093965;28;20527;-81
2023/10/10 07:23:42;;;;;;;0.50;0.40;;;16.10;99.90;;;;;;5094432;28;20501;-80
2023/10/10 07:26:18;;;;;;;0.50;0.40;;;16.10;99.90;;;;;;5094147;28;20499;-80
2023/10/10 07:28:48;;;;;;;0.50;0.40;;;16.20;99.90;;;;;;5085926;28;20439;-80
2023/10/10 07:31:21;;;;;;;1.10;0.90;;;16.30;99.90;;;;;;5078723;28;20444;-80
2023/10/10 07:34:03;;;;;;;0.50;0.47;;;16.50;99.90;;;;;;5085705;28;20458;-79
2023/10/10 07:36:31;;;;;;;1.17;1.17;;;16.70;99.90;;;;;;5094841;28;20506;-80
2023/10/10 07:41:44;;;;;;;0.60;0.53;;;16.80;99.90;;;;;;5089815;28;20842;-81
2023/10/10 07:44:11;;;;;;;0.50;0.40;;;17.00;99.90;;;;;;5091410;28;20428;-80
2023/10/10 07:46:44;;;;;;;2.50;1.10;;;17.10;99.90;;;;;;5089357;28;20447;-80
2023/10/10 07:49:16;;;;;;;0.50;0.43;;;17.10;99.90;;;;;;5069515;28;20431;-79
2023/10/10 07:51:49;;;;;;;0.50;0.40;;;17.20;99.90;;;;;;5094174;28;20484;-80
2023/10/10 07:54:28;;;;;;;1.80;0.70;;;17.60;99.90;;;;;;5086450;28;20454;-79
2023/10/10 07:56:56;;;;;;;0.50;0.40;;;18.00;99.90;;;;;;5094372;28;20479;-80
2023/10/10 07:59:23;;;;;;;0.50;0.40;;;18.50;99.90;;;;;;5089693;28;20443;-81
2023/10/10 08:01:54;;;;;;;1.37;0.87;;;19.00;99.90;;;;;;5090882;28;20435;-82
2023/10/10 08:04:22;;;;;;;0.50;0.40;;;19.50;99.90;;;;;;5078017;28;20455;-80
2023/10/10 08:06:49;;;;;;;0.83;0.83;;;20.30;99.90;;;;;;5094717;28;20452;-80
2023/10/10 08:09:19;;;;;;;0.50;0.40;;;20.80;99.90;;;;;;5095018;28;20432;-81
2023/10/10 08:11:47;;;;;;;0.70;0.70;;;21.20;99.90;;;;;;5094475;28;20435;-80
2023/10/10 08:14:17;;;;;;;0.50;0.40;;;21.30;99.90;;;;;;5094293;28;20949;-80
2023/10/10 08:16:44;;;;;;;0.50;0.30;;;21.00;99.90;;;;;;5085605;28;20566;-80
2023/10/10 08:19:13;;;;;;;0.73;0.73;;;20.90;99.90;;;;;;5085325;28;20938;-77
2023/10/10 08:21:48;;;;;;;0.50;0.40;;;20.80;99.90;;;;;;5087979;28;20436;-80
2023/10/10 08:24:16;;;;;;;0.50;0.30;;;20.70;99.90;;;;;;5085694;28;20478;-81
2023/10/10 08:26:44;;;;;;;1.73;1.17;;;20.60;99.90;;;;;;5086901;28;20527;-79
2023/10/10 08:29:12;;;;;;;0.50;0.30;;;20.90;99.90;;;;;;5081659;28;20526;-76
2023/10/10 08:31:42;;;;;;;0.50;0.40;;;21.00;99.90;;;;;;5088629;28;21001;-80
2023/10/10 08:34:09;;;;;;;0.50;0.33;;;21.20;99.90;;;;;;5096088;28;20443;-81
2023/10/10 08:36:43;;;;;;;0.50;0.43;;;21.70;99.90;;;;;;5097779;28;20478;-81
2023/10/10 08:39:25;;;;;;;0.50;0.40;;;21.50;99.90;;;;;;5088428;28;20443;-77
2023/10/10 08:41:53;;;;;;;0.77;0.77;;;21.30;99.90;;;;;;5097579;28;20447;-80
2023/10/10 08:44:20;;;;;;;0.50;0.30;;;21.20;99.90;;;;;;5080593;28;20443;-80
2023/10/10 08:46:48;;;;;;;0.50;0.30;;;21.00;99.90;;;;;;5096996;28;20950;-80
2023/10/10 08:49:15;;;;;;;0.50;0.30;;;21.40;99.90;;;;;;5097045;28;20439;-79
2023/10/10 08:51:45;;;;;;;0.50;0.40;;;22.00;99.90;;;;;;5097481;28;20776;-81
2023/10/10 08:54:15;;;;;;;0.50;0.40;;;22.20;99.90;;;;;;5096560;28;20988;-80
2023/10/10 08:56:42;;;;;;;0.90;0.83;;;22.40;99.90;;;;;;5096773;28;20485;-80
2023/10/10 08:59:10;;;;;;;1.53;0.80;;;22.50;99.90;;;;;;5095064;28;20432;-80
2023/10/10 09:01:38;;;;;;;0.50;0.40;;;22.80;99.90;;;;;;5082732;28;20435;-80
2023/10/10 09:04:12;;;;;;;0.50;0.33;;;23.00;99.90;;;;;;5096402;28;20949;-81
2023/10/10 09:06:44;;;;;;;0.50;0.40;;;23.10;99.90;;;;;;5096629;28;20804;-81
2023/10/10 09:11:57;;;;;;;0.50;0.40;;;23.80;99.90;;;;;;5096813;28;20439;-79
2023/10/10 09:14:39;;;;;;;0.50;0.50;;;23.40;99.90;;;;;;5096542;28;20527;-79
2023/10/10 09:17:08;;;;;;;0.50;0.30;;;23.50;99.90;;;;;;5095810;28;20881;-80
2023/10/10 09:19:39;;;;;;;0.70;0.57;;;23.60;99.90;;;;;;5096890;28;20446;-81
2023/10/10 09:22:12;;;;;;;18.73;1.37;;;23.60;99.90;;;;;;5087103;28;20934;-81
2023/10/10 09:24:41;;;;;;;0.50;0.40;;;23.50;99.90;;;;;;5090210;28;20501;-79
2023/10/10 09:27:22;;;;;;;0.50;0.30;;;23.20;99.90;;;;;;5096135;28;20543;-76
2023/10/10 09:29:54;;;;;;;2.00;1.90;;;22.90;99.90;;;;;;5096704;28;20436;-79
2023/10/10 09:32:27;;;;;;;0.50;0.40;;;22.50;99.90;;;;;;5096209;28;20531;-79
2023/10/10 09:34:57;;;;;;;0.60;0.60;;;22.10;99.90;;;;;;5087488;28;20428;-79
2023/10/10 09:37:35;;;;;;;0.50;0.40;;;21.90;99.90;;;;;;5087557;28;20471;-80
2023/10/10 09:40:15;;;;;;;0.50;0.30;;;21.80;99.90;;;;;;5096300;28;20439;-79
2023/10/10 09:42:53;;;;;;;0.50;0.40;;;21.70;99.90;;;;;;5096024;28;20440;-80
2023/10/10 09:45:52;;;;;;;1.43;1.33;;;21.30;99.90;;;;;;5087006;28;20439;-80
2023/10/10 09:48:28;;;;;;;0.50;0.30;;;21.30;99.90;;;;;;5095996;28;20439;-80
2023/10/10 09:51:15;;;;;;;0.50;0.43;;;21.10;99.90;;;;;;5096304;28;20435;-79
2023/10/10 09:53:46;;;;;;;0.50;0.30;;;20.80;99.90;;;;;;5084104;28;20443;-80
2023/10/10 09:56:16;;;;;;;0.50;0.30;;;20.90;99.90;;;;;;5096209;28;20463;-80
2023/10/10 09:58:46;;;;;;;0.50;0.40;;;21.10;99.90;;;;;;5095392;28;20471;-80
2023/10/10 10:01:23;;;;;;;0.50;0.40;;;21.20;99.90;;;;;;5095957;28;20493;-80
2023/10/10 10:03:59;;;;;;;0.50;0.40;;;21.40;99.90;;;;;;5095804;28;20532;-81
2023/10/10 10:07:12;;;;;;;0.63;0.63;;;21.50;99.90;;;;;;5096239;28;20481;-80
2023/10/10 10:10:18;;;;;;;0.60;0.43;;;21.50;99.90;;;;;;5084474;28;20436;-80
2023/10/10 10:13:19;;;;;;;0.50;0.30;;;21.80;99.90;;;;;;5092105;28;20961;-81
2023/10/10 10:16:08;;;;;;;7.20;1.63;;;22.10;99.90;;;;;;5084455;28;20451;-81
2023/10/10 10:18:44;;;;;;;0.50;0.30;;;22.10;99.90;;;;;;5081207;28;20459;-81
2023/10/10 10:21:18;;;;;;;0.50;0.30;;;21.90;99.90;;;;;;5096124;28;20463;-80
2023/10/10 10:23:55;;;;;;;0.50;0.37;;;22.00;99.90;;;;;;5095763;28;20455;-81
2023/10/10 10:26:32;;;;;;;0.70;0.63;;;22.30;99.90;;;;;;5095573;28;20466;-80
2023/10/10 10:29:15;;;;;;;0.50;0.30;;;22.30;99.90;;;;;;5095218;28;20467;-80
2023/10/10 10:31:49;;;;;;;0.67;0.67;;;22.70;99.90;;;;;;5082931;28;20501;-80
2023/10/10 10:34:24;;;;;;;1.27;0.70;;;23.20;99.90;;;;;;5096237;28;20850;-79
2023/10/10 10:36:56;;;;;;;0.50;0.47;;;23.30;99.90;;;;;;5089923;28;20828;-81
2023/10/10 10:39:25;;;;;;;0.50;0.43;;;23.10;99.90;;;;;;5094023;28;20444;-81
2023/10/10 10:41:53;;;;;;;0.50;0.30;;;23.20;99.90;;;;;;5087008;28;20462;-80
2023/10/10 10:44:46;;;;;;;0.50;0.30;;;23.40;99.90;;;;;;5095170;28;20472;-80
2023/10/10 10:47:53;;;;;;;0.50;0.30;;;23.50;99.90;;;;;;5068152;28;20461;-81
2023/10/10 10:50:40;;;;;;;0.80;0.57;;;23.40;99.90;;;;;;5083913;28;20490;-81
2023/10/10 10:53:20;;;;;;;2.30;2.10;;;23.50;99.90;;;;;;5094465;28;20481;-80
2023/10/10 10:55:59;;;;;;;2.80;0.90;;;23.10;99.90;;;;;;5082279;28;20467;-80
2023/10/10 10:58:26;;;;;;;0.50;0.40;;;23.10;99.90;;;;;;5085388;28;20577;-80
2023/10/10 11:01:00;;;;;;;0.70;0.70;;;23.20;99.90;;;;;;5090416;28;20440;-80
2023/10/10 11:03:33;;;;;;;0.50;0.40;;;23.70;99.90;;;;;;5094743;28;20871;-81
2023/10/10 11:06:00;;;;;;;1.93;1.80;;;24.30;99.90;;;;;;5079657;28;20467;-81
2023/10/10 11:11:23;;;;;;;0.50;0.40;;;24.70;99.90;;;;;;5086459;28;20426;-79
2023/10/10 11:13:54;;;;;;;0.50;0.50;;;24.60;99.90;;;;;;5089690;28;20435;-80
2023/10/10 11:16:28;;;;;;;0.50;0.30;;;24.30;99.90;;;;;;5097587;28;20943;-80
2023/10/10 11:18:58;;;;;;;0.50;0.50;;;24.40;99.90;;;;;;5096824;28;20475;-81
2023/10/10 11:21:27;;;;;;;0.67;0.60;;;24.80;99.90;;;;;;5095041;28;20512;-80
2023/10/10 11:23:58;;;;;;;0.90;0.60;;;25.10;99.90;;;;;;5094704;28;20541;-81
2023/10/10 11:26:33;;;;;;;0.60;0.50;;;25.60;98.60;;;;;;5095480;28;20550;-81
2023/10/10 11:29:00;;;;;;;0.97;0.97;;;25.80;97.80;;;;;;5088682;28;20444;-80
2023/10/10 11:31:34;;;;;;;0.50;0.37;;;25.70;96.40;;;;;;5094352;28;20485;-81
2023/10/10 11:34:25;;;;;;;0.50;0.40;;;26.00;96.50;;;;;;5091266;28;20435;-82
2023/10/10 11:37:13;;;;;;;0.50;0.30;;;26.30;96.10;;;;;;5080492;28;20464;-81
2023/10/10 11:39:47;;;;;;;0.50;0.40;;;25.80;95.20;;;;;;5079729;28;20939;-81
2023/10/10 11:42:27;;;;;;;0.50;0.40;;;25.80;96.30;;;;;;5094215;28;20479;-80
2023/10/10 11:45:00;;;;;;;2.53;1.00;;;25.80;96.20;;;;;;5089088;28;20858;-80
2023/10/10 11:47:28;;;;;;;0.50;0.40;;;25.90;95.80;;;;;;5092852;28;20447;-81
2023/10/10 11:50:05;;;;;;;0.50;0.30;;;26.10;95.80;;;;;;5089733;28;20495;-81
2023/10/10 11:52:33;;;;;;;0.50;0.37;;;26.60;97.70;;;;;;5095725;28;20445;-78
2023/10/10 11:55:00;;;;;;;0.60;0.50;;;27.20;94.10;;;;;;5098397;28;20513;-79
2023/10/10 11:57:32;;;;;;;0.50;0.40;;;27.30;92.60;;;;;;5099331;28;20475;-80
2023/10/10 12:00:06;;;;;;;0.50;0.30;;;27.60;90.60;;;;;;5084699;28;20475;-79
2023/10/10 12:02:40;;;;;;;0.50;0.30;;;27.90;89.80;;;;;;5095678;28;20445;-80
2023/10/10 12:05:35;;;;;;;0.50;0.40;;;27.60;90.10;;;;;;5095313;28;20469;-78
2023/10/10 12:08:06;;;;;;;1.17;0.70;;;27.60;88.80;;;;;;5084299;28;20420;-79
2023/10/10 12:10:42;;;;;;;0.50;0.33;;;27.80;89.50;;;;;;5093431;28;20431;-80
2023/10/10 12:13:12;;;;;;;0.50;0.30;;;28.30;90.00;;;;;;5090939;28;20424;-80
2023/10/10 12:15:40;;;;;;;0.50;0.37;;;28.30;88.90;;;;;;5082409;28;20451;-80
2023/10/10 12:18:10;;;;;;;0.50;0.30;;;28.30;89.00;;;;;;5082103;28;20469;-79
2023/10/10 12:20:42;;;;;;;0.50;0.30;;;28.30;89.30;;;;;;5081760;28;20944;-80
2023/10/10 12:23:09;;;;;;;0.50;0.40;;;28.30;86.10;;;;;;5091010;28;20503;-80
2023/10/10 12:25:37;;;;;;;0.50;0.40;;;28.50;85.60;;;;;;5099797;28;20531;-79
2023/10/10 12:28:04;;;;;;;0.50;0.30;;;28.60;85.50;;;;;;5095273;28;20439;-79
2023/10/10 12:30:31;;;;;;;1.70;1.60;;;28.70;84.80;;;;;;5098794;28;20530;-79
2023/10/10 12:32:57;;;;;;;0.50;0.30;;;29.00;84.10;;;;;;5098658;28;20438;-78
2023/10/10 12:35:26;;;;;;;0.50;0.30;;;29.10;82.90;;;;;;5099744;28;20439;-78
2023/10/10 12:38:01;;;;;;;0.50;0.50;;;29.60;82.40;;;;;;5083173;28;21062;-78
2023/10/10 12:40:28;;;;;;;0.50;0.30;;;29.30;78.70;;;;;;5089436;28;20490;-79
2023/10/10 12:42:55;;;;;;;0.50;0.30;;;29.30;78.80;;;;;;5097345;28;20442;-80
2023/10/10 12:45:21;;;;;;;0.50;0.30;;;29.50;81.00;;;;;;5097335;28;20522;-78
2023/10/10 12:47:48;;;;;;;0.60;0.57;;;29.40;80.60;;;;;;5096566;28;20524;-80
2023/10/10 12:50:15;;;;;;;0.80;0.50;;;29.20;78.40;;;;;;5089939;28;20443;-78
2023/10/10 12:52:46;;;;;;;0.50;0.40;;;28.90;78.90;;;;;;5084481;28;20436;-80
2023/10/10 12:55:13;;;;;;;0.50;0.30;;;28.30;80.20;;;;;;5102087;28;20436;-80
2023/10/10 12:57:40;;;;;;;1.00;0.73;;;28.10;81.40;;;;;;5094625;28;20483;-79
2023/10/10 13:00:33;;;;;;;0.50;0.30;;;28.20;80.80;;;;;;5092609;28;20442;-80
2023/10/10 13:02:59;;;;;;;0.50;0.30;;;28.20;83.70;;;;;;5098036;28;20432;-79
2023/10/10 13:05:27;;;;;;;0.53;0.50;;;28.60;81.90;;;;;;5098001;28;20451;-80
2023/10/10 13:07:58;;;;;;;0.80;0.53;;;28.80;79.50;;;;;;5083757;28;20429;-81
2023/10/10 13:10:27;;;;;;;0.50;0.30;;;28.30;79.80;;;;;;5092592;28;20466;-79
2023/10/10 13:12:54;;;;;;;0.50;0.40;;;28.30;80.30;;;;;;5076111;28;20817;-79
2023/10/10 13:15:29;;;;;;;0.50;0.30;;;28.70;81.30;;;;;;5083910;28;20447;-80
2023/10/10 13:20:39;;;;;;;2.40;1.90;;;28.30;77.70;;;;;;5088183;28;20938;-83
2023/10/10 13:23:07;;;;;;;0.50;0.30;;;28.40;79.20;;;;;;5096256;28;20505;-79
2023/10/10 13:25:37;;;;;;;0.50;0.30;;;28.40;80.00;;;;;;5094543;28;20830;-79
2023/10/10 13:28:09;;;;;;;0.50;0.40;;;28.60;81.80;;;;;;5077354;28;20444;-80
2023/10/10 13:30:38;;;;;;;0.50;0.30;;;28.80;76.10;;;;;;5085056;28;20466;-80
2023/10/10 13:33:08;;;;;;;0.50;0.50;;;29.00;78.20;;;;;;5091020;28;20866;-80
2023/10/10 13:35:37;;;;;;;0.70;0.70;;;29.10;74.70;;;;;;5095068;28;20452;-80
2023/10/10 13:38:05;;;;;;;0.50;0.30;;;29.40;74.20;;;;;;5085377;28;20563;-80
2023/10/10 13:40:37;;;;;;;0.50;0.40;;;29.20;72.10;;;;;;5094654;28;20450;-80
2023/10/10 13:43:08;;;;;;;0.50;0.30;;;28.90;73.40;;;;;;5091989;28;20508;-80
2023/10/10 13:45:37;;;;;;;0.50;0.30;;;28.70;74.20;;;;;;5093776;28;20554;-81
2023/10/10 13:48:08;;;;;;;0.50;0.30;;;29.00;75.50;;;;;;5084224;28;20439;-79
2023/10/10 13:50:41;;;;;;;0.50;0.30;;;29.10;73.50;;;;;;5087199;28;20805;-81
2023/10/10 13:53:11;;;;;;;0.50;0.30;;;29.30;73.00;;;;;;5083712;28;20432;-80
2023/10/10 13:55:41;;;;;;;0.57;0.57;;;29.00;72.40;;;;;;5089547;28;20522;-80
2023/10/10 13:58:10;;;;;;;0.50;0.50;;;29.20;73.80;;;;;;5097297;28;20475;-79
2023/10/10 14:00:37;;;;;;;0.50;0.40;;;29.10;73.40;;;;;;5095822;28;20435;-80
2023/10/10 14:03:05;;;;;;;0.73;0.73;;;28.80;73.00;;;;;;5091007;28;20580;-81
2023/10/10 14:05:33;;;;;;;0.80;0.80;;;28.40;72.80;;;;;;5095790;28;20462;-80
2023/10/10 14:08:03;;;;;;;0.50;0.30;;;28.20;73.80;;;;;;5091503;28;20448;-81
2023/10/10 14:10:36;;;;;;;0.50;0.30;;;27.90;73.50;;;;;;5084456;28;20440;-80
2023/10/10 14:13:18;;;;;;;0.60;0.60;;;28.30;76.40;;;;;;5076883;28;20424;-80
2023/10/10 14:15:54;;;;;;;1.53;0.93;;;28.50;73.40;;;;;;5087566;28;20448;-80
2023/10/10 14:18:23;;;;;;;0.50;0.30;;;28.30;74.40;;;;;;5087741;28;20499;-80
2023/10/10 14:20:50;;;;;;;0.50;0.30;;;28.30;72.20;;;;;;5076058;28;20433;-80
2023/10/10 14:23:19;;;;;;;0.50;0.40;;;28.30;72.40;;;;;;5084146;28;20436;-80
2023/10/10 14:25:47;;;;;;;0.50;0.30;;;28.00;73.50;;;;;;5085575;28;20455;-79
2023/10/10 14:28:17;;;;;;;0.50;0.30;;;27.80;70.50;;;;;;5076250;28;20459;-80
2023/10/10 14:30:44;;;;;;;0.93;0.93;;;27.70;72.40;;;;;;5085785;28;20439;-79
2023/10/10 14:33:11;;;;;;;0.50;0.37;;;27.20;71.80;;;;;;5095871;28;20442;-80
2023/10/10 14:35:38;;;;;;;0.50;0.40;;;26.90;72.40;;;;;;5086591;28;20465;-79
2023/10/10 14:38:05;;;;;;;2.10;0.57;;;26.70;72.80;;;;;;5096061;28;20482;-80
2023/10/10 14:40:33;;;;;;;1.07;1.00;;;26.60;74.00;;;;;;5095158;28;20446;-81
2023/10/10 14:43:05;;;;;;;1.63;1.43;;;26.30;74.60;;;;;;5096091;28;20482;-80
2023/10/10 14:45:34;;;;;;;0.50;0.30;;;26.40;75.10;;;;;;5094361;28;20459;-79
2023/10/10 14:48:06;;;;;;;0.50;0.40;;;26.30;75.90;;;;;;5095452;28;20446;-80
2023/10/10 14:50:40;;;;;;;0.60;0.40;;;26.20;76.10;;;;;;5095277;28;20443;-81
2023/10/10 14:53:09;;;;;;;0.50;0.30;;;25.90;76.80;;;;;;5095117;28;20435;-80
2023/10/10 14:55:44;;;;;;;0.50;0.40;;;25.70;78.00;;;;;;5094729;28;20471;-81
2023/10/10 14:58:12;;;;;;;0.60;0.57;;;25.60;80.00;;;;;;5088830;28;20502;-81
2023/10/10 15:00:41;;;;;;;0.50;0.30;;;25.20;79.10;;;;;;5093023;28;20446;-80
2023/10/10 15:03:13;;;;;;;0.60;0.40;;;25.10;80.00;;;;;;5087219;28;20536;-82
2023/10/10 15:05:49;;;;;;;0.50;0.30;;;25.00;79.70;;;;;;5094768;28;20987;-80
2023/10/10 15:08:18;;;;;;;0.50;0.30;;;24.70;80.90;;;;;;5095119;28;20459;-79
2023/10/10 15:10:45;;;;;;;0.50;0.40;;;24.40;82.40;;;;;;5094806;28;20938;-80
2023/10/10 15:13:15;;;;;;;0.50;0.37;;;24.30;82.70;;;;;;5094894;28;20507;-80